Overview Statistics Trail Chart Weather Telemetry Raw packets
 

This is the latest recevied weather packets stored in our database for station/object DL6DJ-15. If no packets are shown the sender has not sent any weather packets the latest 10 day(s).

<< 103 104 105 106 107 108 109 >>
Time Temp. Humidity Pressure Rain* Wind** Luminosity Snow
1787829795 32.22° C 32% 1017.6 hPa - - - -
1787829495 32.22° C 32% 1017.5 hPa - - - -
1787829194 32.22° C 30% 1017.6 hPa - - - -
1787828900 32.22° C 33% 1017.7 hPa - - - -
1787828593 32.22° C 32% 1017.7 hPa - - - -
1787828293 32.78° C 32% 1017.7 hPa - - - -
1787827993 32.78° C 33% 1017.7 hPa - - - -
1787827693 32.78° C 32% 1017.6 hPa - - - -
1787827392 32.78° C 31% 1017.7 hPa - - - -
1787827092 33.33° C 33% 1018 hPa - - - -
1787826791 33.33° C 35% 1017.9 hPa - - - -
1787826491 33.89° C 30% 1018 hPa - - - -
1787826190 33.89° C 31% 1017.8 hPa - - - -
1787825889 33.89° C 31% 1017.7 hPa - - - -
1787825589 35° C 29% 1017.8 hPa - - - -
1787825289 33.89° C 31% 1017.9 hPa - - - -
1787824989 33.33° C 32% 1017.8 hPa - - - -
1787824688 32.78° C 33% 1017.8 hPa - - - -
1787824388 31.67° C 35% 1017.9 hPa - - - -
1787824087 31.11° C 35% 1018 hPa - - - -
1787823787 33.33° C 31% 1017.9 hPa - - - -
1787823487 33.33° C 32% 1018 hPa - - - -
1787823186 33.33° C 33% 1018 hPa - - - -
1787822886 32.78° C 33% 1018 hPa - - - -
1787822586 32.22° C 33% 1018.1 hPa - - - -

* Rain since midnight (hover to see other rain measurements)
** Current wind speed in m/s (hover to see current wind gust speed)